Time;durP1;ratioP1;P1;durP2;ratioP2;P2;SDS_P1;SDS_P2;PMS_P1;PMS_P2;Temp;Humidity;BMP_temperature;BMP_pressure;BME280_temperature;BME280_humidity;BME280_pressure;Samples;Min_cycle;Max_cycle;Signal;HPM_P1;HPM_P2
2024/04/02 00:02:01;;;;;;;2.83;1.80;;;;;;;9.68;100.00;99358.97;4888240;29;20048;-87
2024/04/02 00:05:10;;;;;;;2.25;1.90;;;;;;;9.60;100.00;99360.00;4893650;29;20092;-85
2024/04/02 00:07:36;;;;;;;2.03;1.60;;;;;;;9.62;100.00;99362.59;4877634;29;20052;-85
2024/04/02 00:10:03;;;;;;;2.97;1.98;;;;;;;9.62;100.00;99353.88;4901011;29;20194;-87
2024/04/02 00:12:29;;;;;;;2.13;2.00;;;;;;;9.66;100.00;99363.34;4892384;29;20131;-85
2024/04/02 00:14:56;;;;;;;1.70;1.70;;;;;;;9.60;100.00;99360.00;4888760;29;20056;-86
2024/04/02 00:17:21;;;;;;;1.83;1.73;;;;;;;9.63;100.00;99358.22;4904297;29;20056;-87
2024/04/02 00:19:48;;;;;;;2.65;1.92;;;;;;;9.59;100.00;99366.16;4884909;29;20052;-86
2024/04/02 00:22:14;;;;;;;4.22;2.10;;;;;;;9.52;100.00;99369.81;4885872;29;20072;-86
2024/04/02 00:24:42;;;;;;;2.47;2.28;;;;;;;9.49;100.00;99367.28;4902563;29;20032;-86
2024/04/02 00:27:13;;;;;;;1.98;1.88;;;;;;;9.50;100.00;99366.34;4892646;29;20134;-85
2024/04/02 00:29:42;;;;;;;4.43;2.70;;;;;;;9.52;100.00;99372.41;4889538;29;20056;-86
2024/04/02 00:32:08;;;;;;;2.20;2.10;;;;;;;9.47;100.00;99370.81;4905303;29;20067;-87
2024/04/02 00:34:34;;;;;;;3.13;2.78;;;;;;;9.41;100.00;99372.69;4889375;29;20428;-85
2024/04/02 00:37:00;;;;;;;3.67;2.45;;;;;;;9.39;100.00;99374.47;4907035;29;20076;-85
2024/04/02 00:39:29;;;;;;;2.08;1.95;;;;;;;9.36;100.00;99368.47;4887670;29;20138;-86
2024/04/02 00:42:01;;;;;;;8.52;3.22;;;;;;;9.35;100.00;99372.00;4899371;29;20048;-87
2024/04/02 00:44:36;;;;;;;3.28;2.95;;;;;;;9.45;100.00;99373.44;4909199;29;20048;-86
2024/04/02 00:47:03;;;;;;;4.95;2.42;;;;;;;9.51;100.00;99372.47;4886483;29;20108;-85
2024/04/02 00:49:34;;;;;;;3.00;2.70;;;;;;;9.52;100.00;99382.00;4901630;29;20039;-86
2024/04/02 00:52:02;;;;;;;2.90;2.70;;;;;;;9.51;100.00;99385.53;4907860;29;20158;-86
2024/04/02 00:54:39;;;;;;;4.70;2.78;;;;;;;9.55;100.00;99387.16;4892053;29;20040;-86
2024/04/02 00:57:05;;;;;;;3.75;2.78;;;;;;;9.56;100.00;99386.25;4902054;29;20044;-87
2024/04/02 00:59:35;;;;;;;6.65;2.55;;;;;;;9.60;100.00;99390.50;4885815;29;20040;-88
2024/04/02 01:02:02;;;;;;;4.20;2.70;;;;;;;9.59;100.00;99394.88;4886483;29;20156;-85
2024/04/02 01:04:30;;;;;;;3.42;3.08;;;;;;;9.56;100.00;99402.78;4896393;29;20051;-85
2024/04/02 01:06:57;;;;;;;2.90;2.65;;;;;;;9.57;100.00;99396.66;4901036;29;20075;-87
2024/04/02 01:09:27;;;;;;;3.00;2.80;;;;;;;9.61;100.00;99405.28;4903519;29;20051;-85
2024/04/02 01:11:53;;;;;;;3.75;3.00;;;;;;;9.60;100.00;99403.56;4894938;29;20060;-87
2024/04/02 01:14:20;;;;;;;5.35;3.40;;;;;;;9.59;100.00;99397.50;4904915;29;20489;-85
2024/04/02 01:16:49;;;;;;;2.65;2.45;;;;;;;9.60;100.00;99395.72;4887889;29;20104;-85
2024/04/02 01:19:16;;;;;;;3.35;3.13;;;;;;;9.59;100.00;99404.47;4883603;29;20066;-88
2024/04/02 01:21:42;;;;;;;8.75;3.10;;;;;;;9.59;100.00;99401.84;4892504;29;20146;-85
2024/04/02 01:24:09;;;;;;;4.88;3.33;;;;;;;9.63;100.00;99400.88;4894172;29;20091;-85
2024/04/02 01:26:35;;;;;;;3.22;3.00;;;;;;;9.60;100.00;99400.97;4913618;29;20048;-86
2024/04/02 01:29:03;;;;;;;3.60;3.35;;;;;;;9.62;100.00;99404.41;4906327;29;20055;-86
2024/04/02 01:31:30;;;;;;;3.42;3.05;;;;;;;9.61;100.00;99402.69;4911382;29;20040;-87
2024/04/02 01:33:58;;;;;;;2.92;2.72;;;;;;;9.66;100.00;99399.94;4906119;29;20526;-85
2024/04/02 01:36:30;;;;;;;4.10;3.22;;;;;;;9.64;100.00;99405.22;4901258;29;20044;-85
2024/04/02 01:39:03;;;;;;;3.83;2.70;;;;;;;9.65;100.00;99411.28;4886205;29;20163;-87
2024/04/02 01:41:28;;;;;;;3.58;3.25;;;;;;;9.64;100.00;99407.81;4889183;29;20040;-86
2024/04/02 01:43:58;;;;;;;3.25;3.00;;;;;;;9.66;100.00;99411.25;4893981;29;20548;-86
2024/04/02 01:46:23;;;;;;;3.33;3.03;;;;;;;9.68;100.00;99419.91;4900664;29;20039;-85
2024/04/02 01:48:51;;;;;;;4.15;3.45;;;;;;;9.72;100.00;99416.31;4899378;29;20048;-85
2024/04/02 01:51:16;;;;;;;3.95;3.05;;;;;;;9.68;100.00;99422.53;4890771;29;20040;-85
2024/04/02 01:53:43;;;;;;;3.70;3.38;;;;;;;9.67;100.00;99414.72;4891925;29;20055;-87
2024/04/02 01:56:10;;;;;;;3.35;2.95;;;;;;;9.70;100.00;99420.75;4890038;29;20068;-86
2024/04/02 01:58:43;;;;;;;6.82;3.03;;;;;;;9.72;100.00;99416.31;4906822;29;20040;-86
2024/04/02 02:01:09;;;;;;;3.88;3.10;;;;;;;9.76;100.00;99422.31;4904551;29;20052;-85
2024/04/02 02:03:35;;;;;;;4.65;3.10;;;;;;;9.74;100.00;99426.75;4891709;29;20048;-85
2024/04/02 02:06:01;;;;;;;4.38;3.22;;;;;;;9.73;100.00;99430.25;4892192;29;20158;-87
2024/04/02 02:08:28;;;;;;;3.03;2.80;;;;;;;9.70;100.00;99436.41;4889120;29;20131;-87
2024/04/02 02:11:03;;;;;;;4.00;3.22;;;;;;;9.66;100.00;99428.69;4911014;29;20047;-87
2024/04/02 02:13:39;;;;;;;3.03;2.72;;;;;;;9.64;100.00;99431.34;4895195;29;20040;-86
2024/04/02 02:16:05;;;;;;;2.60;2.40;;;;;;;9.67;100.00;99438.25;4925532;29;20070;-86
2024/04/02 02:18:33;;;;;;;7.25;3.55;;;;;;;9.61;100.00;99434.03;4895231;29;20044;-88
2024/04/02 02:20:59;;;;;;;2.90;2.67;;;;;;;9.58;100.00;99436.72;4888172;29;20107;-86
2024/04/02 02:23:27;;;;;;;3.35;3.15;;;;;;;9.52;100.00;99435.09;4887332;29;20043;-85
2024/04/02 02:25:53;;;;;;;5.32;2.95;;;;;;;9.49;100.00;99432.59;4905637;29;20052;-86
2024/04/02 02:28:19;;;;;;;3.95;3.55;;;;;;;9.54;100.00;99432.47;4888156;29;20049;-86
2024/04/02 02:30:45;;;;;;;4.90;3.30;;;;;;;9.49;100.00;99435.19;4906691;29;20440;-85
2024/04/02 02:33:12;;;;;;;7.10;3.20;;;;;;;9.49;100.00;99437.81;4890040;29;20092;-87
2024/04/02 02:35:38;;;;;;;3.22;3.03;;;;;;;9.43;100.00;99433.56;4891313;29;20102;-86
2024/04/02 02:38:07;;;;;;;3.72;3.22;;;;;;;9.44;100.00;99437.06;4889977;29;20920;-87
2024/04/02 02:40:33;;;;;;;3.15;2.85;;;;;;;9.40;100.00;99448.47;4882609;29;20049;-85
2024/04/02 02:43:00;;;;;;;3.28;2.38;;;;;;;9.36;100.00;99444.19;4912023;29;20473;-86
2024/04/02 02:45:26;;;;;;;3.75;3.15;;;;;;;9.27;100.00;99438.31;4904929;29;20074;-86
2024/04/02 02:47:53;;;;;;;8.60;3.30;;;;;;;9.23;100.00;99441.00;4888744;29;20382;-85
2024/04/02 02:50:18;;;;;;;6.10;4.35;;;;;;;9.16;100.00;99442.06;4904004;29;20130;-86
2024/04/02 02:52:48;;;;;;;3.10;2.85;;;;;;;9.12;100.00;99448.25;4895330;29;20048;-87
2024/04/02 02:55:14;;;;;;;3.67;3.38;;;;;;;9.10;100.00;99458.72;4888168;29;20143;-87
2024/04/02 02:57:41;;;;;;;7.20;3.28;;;;;;;9.05;100.00;99457.97;4892862;29;20515;-88
2024/04/02 03:00:09;;;;;;;3.65;3.33;;;;;;;9.04;100.00;99458.84;4892606;29;20071;-86
2024/04/02 03:02:36;;;;;;;7.32;3.35;;;;;;;9.00;100.00;99460.66;4903448;29;20058;-85
2024/04/02 03:05:05;;;;;;;5.13;3.40;;;;;;;8.93;100.00;99470.38;4893743;29;20569;-88
2024/04/02 03:07:39;;;;;;;4.97;3.65;;;;;;;8.92;100.00;99465.19;4892194;29;20028;-86
2024/04/02 03:10:08;;;;;;;3.80;3.42;;;;;;;8.92;100.00;99473.03;4896016;29;20108;-86
2024/04/02 03:12:35;;;;;;;3.88;3.20;;;;;;;8.87;100.00;99473.13;4890871;29;20067;-87
2024/04/02 03:15:07;;;;;;;4.65;3.00;;;;;;;8.87;100.00;99473.13;4894640;29;20099;-87
2024/04/02 03:17:34;;;;;;;5.40;3.28;;;;;;;8.84;100.00;99473.19;4905129;29;20074;-87
2024/04/02 03:19:59;;;;;;;4.07;2.80;;;;;;;8.80;100.00;99473.28;4908285;29;20056;-86
2024/04/02 03:22:26;;;;;;;5.15;2.83;;;;;;;8.84;100.00;99477.53;4891751;29;20872;-84
2024/04/02 03:24:52;;;;;;;3.42;2.83;;;;;;;8.83;100.00;99475.84;4885883;29;20111;-84
2024/04/02 03:27:18;;;;;;;9.73;3.85;;;;;;;8.86;100.00;99487.03;4883185;29;20048;-87
2024/04/02 03:29:44;;;;;;;4.00;3.22;;;;;;;8.93;100.00;99485.19;4887367;29;20079;-86
2024/04/02 03:32:11;;;;;;;9.18;3.15;;;;;;;8.96;100.00;99485.13;4881740;29;20064;-84
2024/04/02 03:34:39;;;;;;;3.53;2.17;;;;;;;8.98;100.00;99480.72;4894499;29;20051;-88
2024/04/02 03:37:05;;;;;;;4.53;2.47;;;;;;;8.99;100.00;99482.44;4903657;29;20048;-86
2024/04/02 03:39:34;;;;;;;3.80;2.28;;;;;;;9.02;100.00;99479.78;4880786;29;20048;-86
2024/04/02 03:42:01;;;;;;;2.88;2.67;;;;;;;8.99;100.00;99487.66;4888039;29;20048;-85
2024/04/02 03:47:35;;;;;;;2.47;1.63;;;;;;;8.93;100.00;99490.41;4881997;29;20044;-84
2024/04/02 03:50:00;;;;;;;4.20;2.15;;;;;;;8.90;100.00;99496.56;4905854;29;20057;-86
2024/04/02 03:52:27;;;;;;;3.80;2.40;;;;;;;8.87;100.00;99487.94;4905336;29;20128;-85
2024/04/02 03:54:55;;;;;;;3.30;2.67;;;;;;;8.86;100.00;99488.81;4891152;29;20084;-87
2024/04/02 03:57:22;;;;;;;9.82;2.22;;;;;;;8.85;100.00;99497.53;4895569;29;20053;-86
2024/04/02 03:59:50;;;;;;;3.97;2.20;;;;;;;8.81;100.00;99495.88;4891287;29;20048;-86
2024/04/02 04:02:17;;;;;;;2.72;2.30;;;;;;;8.77;100.00;99495.94;4890746;29;20123;-87
2024/04/02 04:04:43;;;;;;;6.72;2.83;;;;;;;8.78;100.00;99491.56;4899162;29;20500;-87
2024/04/02 04:07:09;;;;;;;4.03;3.10;;;;;;;8.78;100.00;99483.75;4893083;29;20055;-84
2024/04/02 04:09:35;;;;;;;5.32;3.22;;;;;;;8.80;100.00;99488.94;4883532;29;20052;-83
2024/04/02 04:12:02;;;;;;;3.85;3.28;;;;;;;8.77;100.00;99489.84;4885989;29;20378;-83
2024/04/02 04:14:28;;;;;;;3.80;3.50;;;;;;;8.77;100.00;99490.72;4904428;29;20051;-84
2024/04/02 04:16:57;;;;;;;5.43;3.75;;;;;;;8.77;100.00;99493.34;4902308;29;20043;-84
2024/04/02 04:19:22;;;;;;;4.55;4.10;;;;;;;8.75;100.00;99500.31;4908210;29;20052;-85
2024/04/02 04:21:49;;;;;;;7.72;4.07;;;;;;;8.74;100.00;99498.59;4903020;29;20095;-84
2024/04/02 04:24:15;;;;;;;4.93;4.38;;;;;;;8.76;100.00;99496.84;4902259;29;20096;-84
2024/04/02 04:26:41;;;;;;;5.40;3.88;;;;;;;8.76;100.00;99493.34;4884773;29;20357;-84
2024/04/02 04:29:07;;;;;;;3.80;3.58;;;;;;;8.74;100.00;99490.78;4884769;29;20468;-81
2024/04/02 04:31:34;;;;;;;4.57;4.18;;;;;;;8.81;100.00;99488.88;4911525;29;20071;-83
2024/04/02 04:34:00;;;;;;;9.85;4.30;;;;;;;8.87;100.00;99488.78;4903866;29;20534;-83
2024/04/02 04:36:26;;;;;;;3.88;3.58;;;;;;;8.87;100.00;99486.16;4900307;29;20158;-85
2024/04/02 04:38:52;;;;;;;6.32;3.78;;;;;;;8.96;100.00;99495.56;4885608;29;20056;-85
2024/04/02 04:41:18;;;;;;;4.13;3.83;;;;;;;8.98;100.00;99500.75;4889865;29;20077;-84
2024/04/02 04:43:44;;;;;;;4.00;3.70;;;;;;;9.01;100.00;99509.38;4885264;29;20048;-84
2024/04/02 04:48:51;;;;;;;5.40;3.08;;;;;;;8.97;100.00;99509.47;4886488;29;20416;-84
2024/04/02 04:51:20;;;;;;;3.78;3.47;;;;;;;9.00;100.00;99520.69;4887023;29;20059;-84
2024/04/02 04:53:46;;;;;;;3.20;2.90;;;;;;;8.96;100.00;99516.44;4887884;29;20043;-85
2024/04/02 04:56:12;;;;;;;4.68;3.47;;;;;;;8.95;100.00;99530.38;4901868;29;20048;-84
2024/04/02 04:58:40;;;;;;;3.72;3.42;;;;;;;8.90;100.00;99530.50;4888006;29;20636;-85
2024/04/02 05:01:09;;;;;;;2.55;2.35;;;;;;;8.88;100.00;99537.47;4911056;29;20472;-84
2024/04/02 05:03:36;;;;;;;3.75;3.35;;;;;;;8.87;100.00;99530.53;4896230;29;20044;-85
2024/04/02 05:06:08;;;;;;;4.43;2.88;;;;;;;8.85;100.00;99539.28;4893513;29;20418;-84
2024/04/02 05:08:41;;;;;;;8.70;4.70;;;;;;;8.86;100.00;99541.00;4897793;29;20456;-85
2024/04/02 05:11:10;;;;;;;3.95;2.60;;;;;;;8.81;100.00;99540.22;4885448;29;20048;-85
2024/04/02 05:13:40;;;;;;;5.38;3.28;;;;;;;8.82;100.00;99555.84;4887743;29;20048;-83
2024/04/02 05:16:08;;;;;;;3.33;3.03;;;;;;;8.82;100.00;99550.63;4897997;29;20048;-86
2024/04/02 05:18:35;;;;;;;3.58;3.17;;;;;;;8.83;100.00;99548.91;4907163;29;20492;-84
2024/04/02 05:21:03;;;;;;;4.30;3.90;;;;;;;8.81;100.00;99556.75;4892805;29;20052;-85
2024/04/02 05:23:30;;;;;;;6.13;3.60;;;;;;;8.79;100.00;99555.94;4897303;29;20044;-87
2024/04/02 05:26:10;;;;;;;3.35;3.13;;;;;;;8.83;100.00;99562.81;4921774;29;20044;-91
2024/04/02 05:28:37;;;;;;;4.93;2.90;;;;;;;8.91;100.00;99560.03;4905006;29;20048;-88
2024/04/02 05:31:07;;;;;;;5.68;3.80;;;;;;;9.02;100.00;99565.03;4922346;29;20036;-89
2024/04/02 05:33:36;;;;;;;6.22;4.35;;;;;;;9.09;100.00;99570.09;4904120;29;20052;-89
2024/04/02 05:36:03;;;;;;;6.10;3.55;;;;;;;9.09;100.00;99564.03;4903523;29;20044;-90
2024/04/02 05:38:30;;;;;;;6.28;3.97;;;;;;;9.23;100.00;99574.19;4909736;29;20056;-89
2024/04/02 05:40:57;;;;;;;4.78;3.88;;;;;;;9.23;100.00;99577.66;4906295;29;20710;-85
2024/04/02 05:43:25;;;;;;;5.35;3.58;;;;;;;9.26;100.00;99574.13;4888524;29;20151;-86
2024/04/02 05:45:52;;;;;;;5.28;3.63;;;;;;;9.23;100.00;99575.06;4908803;29;20456;-85
2024/04/02 05:48:19;;;;;;;3.95;3.65;;;;;;;9.21;100.00;99582.06;4907320;29;20171;-85
2024/04/02 05:50:56;;;;;;;4.43;3.85;;;;;;;9.21;100.00;99583.81;4895818;29;20056;-85
2024/04/02 05:53:23;;;;;;;4.65;3.20;;;;;;;9.20;100.00;99584.69;4900774;29;20052;-85
2024/04/02 05:55:49;;;;;;;3.58;3.38;;;;;;;9.12;100.00;99586.63;4873107;29;20390;-85
2024/04/02 05:58:16;;;;;;;2.90;2.70;;;;;;;9.14;100.00;99588.31;4907195;29;20081;-86
2024/04/02 06:00:50;;;;;;;3.20;2.85;;;;;;;9.14;100.00;99592.66;4890611;29;20461;-86
2024/04/02 06:09:03;;;;;;;4.22;2.55;;;;;;;9.18;100.00;99604.78;4893102;29;20052;-84
2024/04/02 06:11:28;;;;;;;4.75;2.20;;;;;;;9.19;100.00;99602.13;4886582;29;20044;-87
2024/04/02 06:13:55;;;;;;;2.35;2.20;;;;;;;9.33;100.00;99600.97;4889006;29;20744;-85
2024/04/02 06:16:38;;;;;;;3.92;3.38;;;;;;;9.29;100.00;99602.78;4891665;29;20052;-85
2024/04/02 06:22:11;;;;;;;5.47;1.90;;;;;;;9.46;100.00;99610.28;4886766;29;20074;-86
2024/04/02 06:24:46;;;;;;;5.45;2.03;;;;;;;9.54;100.00;99604.88;4899393;29;20127;-85
2024/04/02 06:27:13;;;;;;;4.65;1.98;;;;;;;9.54;100.00;99610.09;4893877;29;20142;-87
2024/04/02 06:29:41;;;;;;;2.90;2.45;;;;;;;9.72;100.00;99609.69;4904128;29;20048;-86
2024/04/02 06:32:10;;;;;;;2.40;2.15;;;;;;;9.80;100.00;99621.75;4887023;29;20508;-86
2024/04/02 06:34:36;;;;;;;5.25;2.15;;;;;;;9.78;100.00;99613.94;4874372;29;20575;-85
2024/04/02 06:37:13;;;;;;;2.33;2.10;;;;;;;10.16;100.00;99619.19;4883193;29;20146;-85
2024/04/02 06:39:43;;;;;;;6.30;2.30;;;;;;;10.71;100.00;99620.44;4873323;29;20045;-82
2024/04/02 06:42:19;;;;;;;3.53;2.90;;;;;;;11.91;100.00;99613.56;4892351;29;20044;-85
2024/04/02 06:45:02;;;;;;;2.90;2.70;;;;;;;13.89;77.88;99618.97;4891625;29;20048;-86
2024/04/02 06:47:30;;;;;;;5.18;3.22;;;;;;;14.54;72.64;99608.44;4873829;29;20104;-85
2024/04/02 06:49:55;;;;;;;7.03;4.10;;;;;;;15.44;67.89;99618.59;4851663;29;20450;-83
2024/04/02 06:52:23;;;;;;;6.75;3.20;;;;;;;15.54;65.24;99613.78;4883894;29;20056;-85
2024/04/02 06:54:49;;;;;;;5.32;3.13;;;;;;;16.15;62.71;99609.16;4886562;29;20041;-86
2024/04/02 06:57:16;;;;;;;5.07;3.08;;;;;;;16.44;62.01;99612.16;4867942;29;20100;-85
2024/04/02 06:59:42;;;;;;;5.70;2.97;;;;;;;14.98;64.64;99618.88;4871889;29;20040;-84
2024/04/02 07:02:09;;;;;;;3.70;3.47;;;;;;;14.81;67.49;99617.00;4875842;29;20136;-84
2024/04/02 07:04:36;;;;;;;5.68;3.78;;;;;;;14.30;69.97;99607.69;4869149;29;20119;-85
2024/04/02 07:07:04;;;;;;;5.82;4.18;;;;;;;15.02;66.49;99619.63;4891231;29;20040;-83
2024/04/02 07:09:31;;;;;;;4.05;3.58;;;;;;;14.85;65.62;99615.94;4873142;29;20037;-83
2024/04/02 07:11:58;;;;;;;6.82;3.25;;;;;;;15.13;64.87;99613.88;4866926;29;20139;-85
2024/04/02 07:14:24;;;;;;;3.00;2.83;;;;;;;14.68;65.58;99621.09;4898072;29;20048;-85
2024/04/02 07:16:53;;;;;;;4.68;4.20;;;;;;;14.75;65.13;99627.78;4875280;29;20132;-87
2024/04/02 07:19:19;;;;;;;6.03;3.65;;;;;;;15.69;63.91;99623.59;4879889;29;20055;-85
2024/04/02 07:21:45;;;;;;;4.22;3.92;;;;;;;15.78;62.13;99613.56;4873171;29;20048;-83
2024/04/02 07:24:11;;;;;;;5.35;4.30;;;;;;;15.10;64.38;99628.03;4871933;29;20055;-85
2024/04/02 07:26:38;;;;;;;4.07;3.63;;;;;;;15.95;61.06;99633.91;4892501;29;20040;-86
2024/04/02 07:29:03;;;;;;;3.67;3.40;;;;;;;15.45;61.83;99628.22;4870988;29;20500;-86
2024/04/02 07:31:31;;;;;;;4.45;4.00;;;;;;;16.20;60.34;99641.47;4888635;29;20056;-86
2024/04/02 07:33:58;;;;;;;4.28;3.92;;;;;;;16.34;59.01;99641.66;4876078;29;20410;-85
2024/04/02 07:36:24;;;;;;;3.83;3.53;;;;;;;16.35;59.05;99630.16;4882130;29;20408;-83
2024/04/02 07:38:50;;;;;;;3.13;3.00;;;;;;;17.33;56.66;99635.81;4896048;29;20046;-85
2024/04/02 07:41:16;;;;;;;4.47;2.75;;;;;;;17.95;55.35;99636.00;4890563;29;20048;-85
2024/04/02 07:43:44;;;;;;;4.57;3.33;;;;;;;18.39;54.03;99639.69;4904898;29;20066;-83
2024/04/02 07:46:10;;;;;;;6.97;2.60;;;;;;;17.86;54.58;99636.50;4901712;29;20054;-86
2024/04/02 07:48:39;;;;;;;3.70;3.35;;;;;;;18.06;54.06;99639.84;4895164;29;20526;-85
2024/04/02 07:51:09;;;;;;;8.65;3.13;;;;;;;17.24;54.80;99647.72;4881233;29;20045;-85
2024/04/02 07:53:37;;;;;;;3.95;3.03;;;;;;;17.32;55.05;99645.53;4904489;29;20040;-84
2024/04/02 07:56:03;;;;;;;2.97;2.83;;;;;;;17.46;55.25;99652.75;4899049;29;20083;-83
2024/04/02 07:58:30;;;;;;;5.32;3.28;;;;;;;18.12;53.30;99655.38;4889714;29;20043;-86
2024/04/02 08:00:56;;;;;;;3.17;2.97;;;;;;;18.16;53.20;99662.19;4889470;29;20096;-86
2024/04/02 08:03:23;;;;;;;3.65;3.40;;;;;;;15.57;58.54;99668.19;4908675;29;20054;-85
2024/04/02 08:05:58;;;;;;;5.32;3.38;;;;;;;15.47;60.26;99671.19;4889012;29;20044;-87
2024/04/02 08:08:25;;;;;;;3.60;3.40;;;;;;;16.04;58.56;99659.84;4913025;29;20063;-85
2024/04/02 08:10:53;;;;;;;7.20;3.97;;;;;;;16.89;57.03;99671.53;4887378;29;20059;-85
2024/04/02 08:13:19;;;;;;;3.50;3.25;;;;;;;16.47;57.92;99678.91;4887426;29;20048;-86
2024/04/02 08:15:48;;;;;;;4.05;3.65;;;;;;;16.91;57.52;99674.13;4907035;29;20074;-85
2024/04/02 08:18:17;;;;;;;8.00;4.57;;;;;;;15.24;61.30;99685.44;4893283;29;20081;-84
2024/04/02 08:20:43;;;;;;;3.63;3.33;;;;;;;14.12;65.54;99678.59;4885930;29;20056;-85
2024/04/02 08:23:09;;;;;;;4.18;3.60;;;;;;;14.07;65.94;99680.53;4909285;29;20468;-85
2024/04/02 08:25:35;;;;;;;5.03;3.85;;;;;;;13.51;67.60;99682.63;4904077;29;20097;-85
2024/04/02 08:28:02;;;;;;;4.35;4.05;;;;;;;12.86;70.26;99690.13;4889833;29;20048;-85
2024/04/02 08:30:28;;;;;;;4.43;4.03;;;;;;;13.27;70.51;99694.00;4906045;29;20072;-87
2024/04/02 08:32:54;;;;;;;4.85;4.45;;;;;;;13.35;69.30;99689.31;4898442;29;20471;-84
2024/04/02 08:35:20;;;;;;;5.65;4.75;;;;;;;15.00;64.74;99695.25;4889862;29;20087;-83
2024/04/02 08:37:47;;;;;;;4.22;3.80;;;;;;;15.31;63.91;99700.03;4905097;29;20088;-86
2024/04/02 08:40:13;;;;;;;4.47;4.07;;;;;;;16.44;60.06;99697.53;4890068;29;20064;-85
2024/04/02 08:42:42;;;;;;;5.78;3.75;;;;;;;17.77;56.75;99697.84;4892493;29;20044;-85
2024/04/02 08:45:11;;;;;;;3.38;3.17;;;;;;;17.55;56.02;99701.66;4901138;29;20048;-85
2024/04/02 08:47:39;;;;;;;3.00;2.80;;;;;;;16.72;57.43;99708.53;4905835;29;20063;-86
2024/04/02 08:50:06;;;;;;;4.28;3.33;;;;;;;15.50;61.17;99704.50;4906435;29;20509;-85
2024/04/02 08:52:36;;;;;;;3.13;2.92;;;;;;;15.25;61.45;99713.47;4910278;29;20044;-86
2024/04/02 08:55:02;;;;;;;3.20;2.90;;;;;;;14.97;62.68;99706.78;4895917;29;20060;-85
2024/04/02 08:57:30;;;;;;;3.92;3.38;;;;;;;14.76;63.47;99723.47;4884777;29;20055;-85
2024/04/02 08:59:59;;;;;;;4.30;3.10;;;;;;;13.93;65.54;99704.75;4900004;29;20051;-85
2024/04/02 09:02:29;;;;;;;3.97;3.42;;;;;;;13.45;68.93;99721.44;4893858;29;20147;-85
2024/04/02 09:04:58;;;;;;;4.97;3.55;;;;;;;14.37;66.33;99711.84;4891741;29;20071;-85
2024/04/02 09:07:28;;;;;;;4.15;3.75;;;;;;;13.32;69.24;99734.13;4898361;29;20059;-85
2024/04/02 09:09:54;;;;;;;4.47;4.15;;;;;;;13.18;70.01;99726.69;4905874;29;20062;-85
2024/04/02 09:12:20;;;;;;;6.63;4.22;;;;;;;12.68;71.95;99732.75;4893872;29;20052;-85
2024/04/02 09:14:46;;;;;;;4.40;4.00;;;;;;;12.88;72.52;99737.34;4906024;29;20036;-86
2024/04/02 09:17:13;;;;;;;4.10;3.78;;;;;;;13.18;70.07;99732.84;4909894;29;20379;-85
2024/04/02 09:19:50;;;;;;;5.30;3.53;;;;;;;13.93;67.74;99746.00;4892498;29;20147;-85
2024/04/02 09:22:23;;;;;;;7.15;3.90;;;;;;;13.90;67.44;99726.75;4896282;29;20139;-86
2024/04/02 09:24:49;;;;;;;7.57;3.63;;;;;;;13.39;68.88;99735.66;4888074;29;20420;-85
2024/04/02 09:27:22;;;;;;;7.72;4.20;;;;;;;12.86;71.10;99736.53;4897955;29;20140;-86
2024/04/02 09:29:48;;;;;;;3.90;3.50;;;;;;;13.07;71.52;99729.72;4907115;29;20043;-86
2024/04/02 09:32:24;;;;;;;4.28;3.33;;;;;;;12.94;71.94;99737.13;4893824;29;20052;-87
2024/04/02 09:34:52;;;;;;;;;;;;;;;13.61;70.02;99735.75;4894149;29;20052;-87
2024/04/02 09:37:34;;;;;;;3.75;3.47;;;;;;;13.80;69.22;99730.66;4897256;29;19929;-85
2024/04/02 09:40:04;;;;;;;5.00;3.55;;;;;;;13.18;70.50;99734.59;4906589;29;20047;-87
2024/04/02 09:42:33;;;;;;;2.75;2.60;;;;;;;13.08;70.89;99736.69;4913994;29;20056;-86
2024/04/02 09:45:00;;;;;;;3.15;2.95;;;;;;;13.06;69.94;99731.50;4900708;29;20051;-86
2024/04/02 09:47:28;;;;;;;3.72;3.05;;;;;;;13.22;70.20;99742.31;4888155;29;20135;-87
2024/04/02 09:49:58;;;;;;;7.93;4.63;;;;;;;13.51;69.66;99745.72;4884134;29;20078;-87
2024/04/02 09:52:26;;;;;;;3.97;3.20;;;;;;;13.78;68.07;99734.25;4917100;29;20108;-87
2024/04/02 09:54:53;;;;;;;6.30;3.92;;;;;;;13.73;67.96;99751.06;4912854;29;20052;-84
2024/04/02 09:57:22;;;;;;;3.72;3.40;;;;;;;13.36;69.07;99754.13;4898045;29;20054;-85
2024/04/02 09:59:48;;;;;;;5.13;4.75;;;;;;;13.09;70.53;99754.16;4894711;29;20212;-86
2024/04/02 10:02:22;;;;;;;5.55;4.20;;;;;;;13.05;71.65;99758.66;4915579;29;20084;-86
2024/04/02 10:04:51;;;;;;;4.80;3.95;;;;;;;13.24;70.20;99764.16;4888089;29;20036;-85
2024/04/02 10:07:29;;;;;;;5.22;3.90;;;;;;;13.12;70.52;99767.19;4897800;29;20088;-88
2024/04/02 10:10:00;;;;;;;4.30;4.00;;;;;;;12.86;71.77;99778.56;4903004;29;20144;-85
2024/04/02 10:12:53;;;;;;;8.38;4.25;;;;;;;12.63;72.71;99768.78;4897818;29;20088;-86
2024/04/02 10:15:22;;;;;;;3.80;3.50;;;;;;;12.94;72.42;99773.06;4891354;29;20054;-85
2024/04/02 10:20:48;;;;;;;5.93;4.47;;;;;;;12.87;74.68;99785.56;4909011;29;20044;-84
2024/04/02 10:23:15;;;;;;;6.32;4.47;;;;;;;13.18;73.05;99772.25;4907456;29;20066;-87
2024/04/02 10:25:42;;;;;;;4.82;4.22;;;;;;;12.99;73.07;99773.78;4892549;29;20028;-85
2024/04/02 10:28:23;;;;;;;6.57;4.47;;;;;;;12.81;74.36;99781.34;4888907;29;20458;-84
2024/04/02 10:30:52;;;;;;;5.25;4.10;;;;;;;12.84;73.66;99798.75;4897244;29;20040;-86
2024/04/02 10:33:28;;;;;;;3.97;3.70;;;;;;;12.83;72.41;99784.78;4903036;29;20064;-87
2024/04/02 10:35:58;;;;;;;4.82;4.35;;;;;;;12.53;73.75;99794.50;4882477;29;20048;-86
2024/04/02 10:38:30;;;;;;;5.32;3.97;;;;;;;12.86;72.76;99794.31;4888019;29;20134;-85
2024/04/02 10:41:00;;;;;;;4.10;3.45;;;;;;;12.82;71.99;99787.47;4895100;29;20084;-86
2024/04/02 10:43:26;;;;;;;7.10;3.58;;;;;;;14.03;67.74;99782.44;4904589;29;20064;-85
2024/04/02 10:45:56;;;;;;;5.53;3.20;;;;;;;14.87;64.54;99777.47;4913471;29;20475;-84
2024/04/02 10:48:22;;;;;;;4.43;3.60;;;;;;;16.17;61.10;99779.78;4912217;29;20051;-86
2024/04/02 10:51:00;;;;;;;6.43;3.00;;;;;;;16.09;59.74;99778.41;4888221;29;20055;-87
2024/04/02 10:53:28;;;;;;;2.97;2.40;;;;;;;17.25;56.34;99772.88;4908022;29;20111;-87
2024/04/02 10:55:57;;;;;;;6.20;2.90;;;;;;;17.34;56.37;99783.88;4893060;29;20051;-87
2024/04/02 10:58:30;;;;;;;3.97;2.90;;;;;;;17.23;55.85;99786.19;4891934;29;20040;-87
2024/04/02 11:00:58;;;;;;;2.42;2.15;;;;;;;16.09;58.18;99792.50;4891202;29;20051;-87
2024/04/02 11:03:24;;;;;;;10.20;2.92;;;;;;;15.22;60.87;99787.44;4916213;29;20692;-86
2024/04/02 11:06:15;;;;;;;7.38;2.45;;;;;;;14.72;63.42;99791.25;4898209;29;20130;-84
2024/04/02 11:08:49;;;;;;;5.40;3.20;;;;;;;14.19;64.91;99790.59;4890085;29;20063;-85
2024/04/02 11:11:28;;;;;;;7.40;3.63;;;;;;;13.89;66.66;99803.13;4887016;29;20045;-85
2024/04/02 11:14:07;;;;;;;7.47;3.88;;;;;;;13.09;69.34;99814.59;4886767;29;20067;-84
2024/04/02 11:16:42;;;;;;;7.03;4.32;;;;;;;12.73;71.03;99820.97;4900786;29;20054;-85
2024/04/02 11:19:12;;;;;;;4.90;4.20;;;;;;;12.78;72.41;99820.00;4896333;29;20050;-85
2024/04/02 11:21:52;;;;;;;7.18;4.75;;;;;;;12.90;72.03;99809.91;4885043;29;20095;-85
2024/04/02 11:27:26;;;;;;;4.68;3.80;;;;;;;12.78;72.34;99825.25;4896947;29;20373;-84
2024/04/02 11:29:59;;;;;;;6.75;3.70;;;;;;;13.13;71.72;99829.34;4902152;29;20044;-85
2024/04/02 11:32:33;;;;;;;5.40;3.33;;;;;;;13.75;68.52;99837.81;4904814;29;20044;-84
2024/04/02 11:35:07;;;;;;;4.93;3.63;;;;;;;13.72;68.18;99830.03;4869522;29;20079;-84
2024/04/02 11:37:34;;;;;;;4.10;3.70;;;;;;;13.22;70.00;99826.41;4886140;29;20131;-84
2024/04/02 11:40:15;;;;;;;;;;;;;;;;;;;;;
2024/04/02 11:42:46;;;;;;;5.03;3.53;;;;;;;13.56;69.81;99827.09;4854268;29;20077;-86
2024/04/02 11:45:38;;;;;;;4.45;3.55;;;;;;;13.29;70.14;99819.19;4884540;29;20702;-86
2024/04/02 11:48:12;;;;;;;5.07;3.58;;;;;;;12.85;71.59;99832.00;4884368;29;20045;-84
2024/04/02 11:50:38;;;;;;;6.15;3.75;;;;;;;12.90;71.33;99830.09;4868515;29;20044;-85
2024/04/02 11:53:08;;;;;;;9.82;4.20;;;;;;;12.84;71.05;99836.41;4865816;29;20056;-86
2024/04/02 11:55:36;;;;;;;3.53;3.10;;;;;;;12.58;71.20;99839.84;4870472;29;20056;-87
2024/04/02 12:00:50;;;;;;;8.75;5.00;;;;;;;12.23;72.20;99828.63;4867463;29;20032;-85
2024/04/02 12:03:24;;;;;;;6.40;3.47;;;;;;;12.08;72.54;99828.16;4869206;29;20049;-85
2024/04/02 12:05:54;;;;;;;3.97;3.15;;;;;;;12.00;72.85;99822.25;4878911;29;20159;-82